Flight Track Log - Related Links

Times and Time Zones

All times are in EDT time to prevent confusion due to time zone crossing. See the ASQ4490 flight status page for this flight to view local times or setup timezone preferences in your user account.

Time Position Orientation Groundspeed Altitude Reporting Facility
EDT Latitude Longitude Course Direction KTS MPH feet Rate Location/Type
Mon 08:38:00 AM 25.8904 -99.9516 47° Northeast  Level FlightAware Approximate
Mon 08:38:09 AM 26.2950 -99.6633 48° Northeast 450 518 35,000  Level Houston Center
Mon 08:39:00 AM 25.9471 -99.8831 48° Northeast  Level FlightAware Approximate
Mon 08:39:10 AM 26.3442 -99.5372 66° East 447 514 35,000  Level Houston Center
Mon 08:40:00 AM 26.0033 -99.8141 48° Northeast  Level FlightAware Approximate
Mon 08:40:12 AM 26.4036 -99.3833 67° East 450 518 35,000  Level Houston Center
Mon 08:41:00 AM 26.0595 -99.7451 48° Northeast  Level FlightAware Approximate
Mon 08:41:14 AM 26.4647 -99.2628 60° Northeast 452 520 35,000  Level Houston Center
Mon 08:42:00 AM 26.1157 -99.6760 48° Northeast  Level FlightAware Approximate
Mon 08:42:15 AM 26.5486 -99.1647 46° Northeast 442 509 35,000  Level Houston Center
Mon 08:43:00 AM 26.1719 -99.6069 48° Northeast  Level FlightAware Approximate
Mon 08:43:17 AM 26.6358 -99.0711 44° Northeast 439 505 35,000  Level Houston Center
Mon 08:44:19 AM 26.7281 -98.9839 40° Northeast 438 504 35,000  Level Houston Center
Mon 08:45:20 AM 26.8200 -98.8964 40° Northeast 436 502 35,000  Level Houston Center
Mon 08:46:22 AM 26.9103 -98.8075 41° Northeast 435 501 35,000  Level Houston Center
Mon 08:47:24 AM 27.0200 -98.7008 41° Northeast 437 503 35,000  Level Houston Center
Mon 08:48:25 AM 27.1114 -98.6117 41° Northeast 437 503 35,000  Level Houston Center
Mon 08:49:27 AM 27.2028 -98.5228 41° Northeast 438 504 35,000  Level Houston Center
Mon 08:50:29 AM 27.2944 -98.4339 41° Northeast 438 504 35,000  Level Houston Center
Mon 08:51:31 AM 27.3861 -98.3428 41° Northeast 441 507 35,000  Level Houston Center
Mon 08:52:33 AM 27.4958 -98.2339 41° Northeast 442 509 35,000  Level Houston Center
Mon 08:53:34 AM 27.5878 -98.1439 41° Northeast 439 505 35,000  Level Houston Center
Mon 08:54:36 AM 27.6797 -98.0542 41° Northeast 439 505 35,000  Level Houston Center
Mon 08:55:38 AM 27.7703 -97.9642 41° Northeast 437 503 35,000  Level Houston Center
Mon 08:56:40 AM 27.8606 -97.8744 41° Northeast 434 499 35,000  Level Houston Center
Mon 08:57:42 AM 27.9514 -97.7836 41° Northeast 435 501 35,000  Level Houston Center
Mon 08:58:43 AM 28.0458 -97.6906 41° Northeast 434 499 35,000  Level Houston Center
Mon 08:59:45 AM 28.1358 -97.6000 42° Northeast 434 499 35,000  Level Houston Center
Mon 09:00:47 AM 28.2461 -97.4917 41° Northeast 435 501 35,000  Level Houston Center
Mon 09:01:49 AM 28.3353 -97.4003 42° Northeast 434 499 35,000  Level Houston Center
Mon 09:02:51 AM 28.4281 -97.3092 41° Northeast 440 506 35,000 -48 Level Houston Center
Mon 09:03:53 AM 28.5178 -97.2172 42° Northeast 436 502 34,900  Descending Houston Center
Mon 09:04:55 AM 28.6081 -97.1261 42° Northeast 437 503 35,000 -585 Climbing Houston Center
Mon 09:05:56 AM 28.7000 -97.0356 41° Northeast 438 504 33,700 -2,049 Descending Houston Center
Mon 09:06:58 AM 28.8106 -96.9214 42° Northeast 449 517 30,800 -2,565 Descending Houston Center
Mon 09:08:00 AM 28.9064 -96.8236 42° Northeast 461 531 28,400 -2,323 Descending Houston Center
Mon 09:09:02 AM 28.9992 -96.7292 42° Northeast 452 520 26,000 -2,371 Descending Houston Center
Mon 09:10:04 AM 29.0886 -96.6389 41° Northeast 437 503 23,500 -2,371 Descending Houston Center
Mon 09:11:06 AM 29.1742 -96.5511 42° Northeast 424 488 21,100 -2,615 Descending Houston Center
Mon 09:11:22 AM 29.2061 -96.5178 42° Northeast 406 467 20,100 -2,806 Descending Houston Center
Mon 09:12:08 AM 29.2697 -96.4528 42° Northeast 394 453 18,200 -2,361 Descending Houston Center
Mon 09:12:23 AM 29.2911 -96.4319 40° Northeast 368 423 17,700 -1,935 Descending Houston Center
Mon 09:13:10 AM 29.3478 -96.3722 43° Northeast 382 440 16,200 -1,872 Descending Houston Center
Mon 09:14:12 AM 29.4300 -96.2869 42° Northeast 397 457 14,300 -2,148 Descending Houston Center
Mon 09:14:31 AM 29.4628 -96.2550 40° Northeast 408 470 13,300 -1,742 Descending Houston Center
Mon 09:15:14 AM 29.5094 -96.2050 43° Northeast 389 448 12,500 -1,279 Descending Houston Center
Mon 09:15:32 AM 29.5358 -96.1750 45° Northeast 360 414 12,000 -1,397 Descending Houston Center
Mon 09:16:27 AM 29.5869 -96.0853 57° Northeast 368 423 10,800 -1,143 Descending Houston Center
Mon 09:17:17 AM 29.6333 -95.9939 60° Northeast 369 425 10,000 -806 Descending Houston Center
Mon 09:17:34 AM 29.6481 -95.9678 57° Northeast 365 420 9,900  Descending Houston Center
Mon 09:18:19 AM 29.6794 -95.9025 61° Northeast 366 421 10,000 98 Climbing Houston Center
Mon 09:18:35 AM 29.6994 -95.8608 61° Northeast 371 427 10,000  Level Houston Center
Mon 09:19:21 AM 29.7308 -95.7972 60° Northeast 373 429 10,000  Level Houston Center
Mon 09:20:23 AM 29.7811 -95.7000 59° Northeast 356 410 10,000 -919 Level Houston Center
Mon 09:21:25 AM 29.8283 -95.6044 60° Northeast 289 333 8,100 -1,742 Descending Houston Center
Mon 09:22:27 AM 29.8681 -95.5236 60° Northeast 289 333 6,400 -1,016 Descending Houston Center
Mon 09:23:29 AM 29.8950 -95.4431 69° East 277 319 6,000 -194 Descending Houston Center
Mon 09:24:31 AM 29.8961 -95.3531 89° East 280 322 6,000  Level Houston Center
Mon 09:25:33 AM 29.8967 -95.2639 90° East 280 322 6,000 -194 Level Houston Center
Mon 09:26:35 AM 29.8969 -95.1872 90° East 246 283 5,600 -387 Descending Houston Center

Login

Don't have an account? Register now (free) for customized features, flight alerts, and more!